Flight Track Log - Related Links

Times and Time Zones

All times are in EDT time to prevent confusion due to time zone crossing. See the THY2426 flight status page for this flight to view local times or setup timezone preferences in your user account.

Time Position Orientation Groundspeed Altitude Reporting Facility
EDT Latitude Longitude Course Direction KTS MPH feet Rate Location/Type
04:25PM 40.5086 29.0603 159° South  Level Estimated
04:26PM 40.4305 29.0999 159° South  Level Estimated
04:27PM 40.3524 29.1393 159° South  Level Estimated
04:28PM 40.2743 29.1787 159° South  Level Estimated
04:29PM 40.1962 29.2180 159° South  Level Estimated
04:30PM 40.1180 29.2572 159° South  Level Estimated
04:31PM 40.0399 29.2962 159° South  Level Estimated
04:32PM 39.9617 29.3352 159° South  Level Estimated
04:33PM 39.8835 29.3741 159° South  Level Estimated
04:34PM 39.8053 29.4130 159° South  Level Estimated
04:35PM 39.7271 29.4517 159° South  Level Estimated
04:36PM 39.6489 29.4904 159° South  Level Estimated
04:37PM 39.5706 29.5289 159° South  Level Estimated
04:38PM 39.4924 29.5674 159° South  Level Estimated
04:39PM 39.4141 29.6058 159° South  Level Estimated
04:40PM 39.3358 29.6441 159° South  Level Estimated
04:41PM 39.2575 29.6823 159° South  Level Estimated
04:42PM 39.1792 29.7204 159° South  Level Estimated
04:43PM 39.1009 29.7585 159° South  Level Estimated
04:44PM 39.0226 29.7964 159° South  Level Estimated
04:45PM 38.9443 29.8343 159° South  Level Estimated
04:46PM 38.8659 29.8721 159° South  Level Estimated
04:47PM 38.7876 29.9098 159° South  Level Estimated
04:48PM 38.7092 29.9474 159° South  Level Estimated
04:49PM 38.6308 29.9850 159° South  Level Estimated
04:50PM 38.5524 30.0224 160° South  Level Estimated
04:51PM 38.4740 30.0598 160° South  Level Estimated
04:52PM 38.3956 30.0971 160° South  Level Estimated
04:53PM 38.3171 30.1343 160° South  Level Estimated
04:54PM 38.2387 30.1715 160° South  Level Estimated
04:55PM 38.1602 30.2085 160° South  Level Estimated
04:56PM 38.0818 30.2455 160° South  Level Estimated
04:57PM 38.0033 30.2824 160° South  Level Estimated
04:58PM 37.9248 30.3192 160° South  Level Estimated
04:59PM 37.8463 30.3560 160° South  Level Estimated
05:00PM 37.7678 30.3926 160° South  Level Estimated
05:01PM 37.6893 30.4292 160° South  Level Estimated
05:02PM 37.6107 30.4657 160° South  Level Estimated
05:03PM 37.5322 30.5022 160° South  Level Estimated
05:04PM 37.4536 30.5385 160° South  Level Estimated
05:05PM 37.3750 30.5748 160° South  Level Estimated
05:06PM 37.2965 30.6110 160° South  Level Estimated
05:07PM 37.2179 30.6471 160° South  Level Estimated
05:08PM 37.1393 30.6832 160° South  Level Estimated
05:09PM 37.0606 30.7192 160° South  Level Estimated
05:10PM 36.9820 30.7551 160° South  Level Estimated
05:11PM 36.9034 30.7909 160° South  Level Estimated
05:12PM 36.9015 30.7917 160° South  Level Estimated
05:13PM 36.9015 30.7917 North  Level Estimated
05:14PM 36.9015 30.7917 North  Level Estimated
05:15PM 36.9015 30.7917 North  Level Estimated
05:16PM 36.9015 30.7917 North  Level Estimated
05:17PM 36.9015 30.7917 North  Level Estimated
05:18PM 36.9015 30.7917 North  Level Estimated
05:19PM 36.9015 30.7917 North  Level Estimated
05:20PM 36.9015 30.7917 North  Level Estimated
05:21PM 36.9015 30.7917 North  Level Estimated
05:22PM 36.9015 30.7917 North  Level Estimated
05:23PM 36.9015 30.7917 North  Level Estimated
05:24PM 36.9015 30.7917 North  Level Estimated
05:25PM 36.9015 30.7917 North  Level Estimated
05:26PM 36.9015 30.7917 North  Level Estimated
05:27PM 36.9015 30.7917 North  Level Estimated

Login

Don't have an account? Register now (free) for customized features, flight alerts, and more!